Kresson, New Jersey
Current Conditions -  °F | °C
As of 4:54 AM on Thursday 18 Dec 2014 (Local Time) from KVAY Reporting Station
Clear Clear  
Wind Chill: 27°   Ceiling: Unl
Heat Index: 35°   Visibility: 10mi
Dew Point: 20°   Wind: 10mph
Humidity: 54%   Direction: 280°W
Pressure: 30"   Gusts: 20mph
Location:  39.8786°N, 74.8969°W
Report Text: KVAY 180954Z AUTO 28009G17KT 10SM CLR 02/M07 A3000 RMK AO2 SLP161 T00171067
Loading
Personal Weather Stations






























Interactive Weather Map New forecast layout! Learn more

10-Day Weather Forecast

Advertisements
Track Severe Weather on mobile